Lewistown, Montana
Current Conditions -  °F | °C
As of 11:54 AM on Saturday 20 Dec 2014 (Local Time) from KLWT Reporting Station
Clear Clear  
Wind Chill:   Ceiling: Unl
Heat Index:   Visibility: 10mi
Dew Point: -6°   Wind: 8mph
Humidity: 45%   Direction: 230°SW
Pressure: 29.83"   Gusts: NA
Location:  47.07°N, 109.42°W
Report Text: KLWT 201854Z AUTO 23007KT 10SM CLR 05/M06 A2983 RMK AO2 SLP113 T00501061
Loading
Personal Weather Stations






























Interactive Weather Map New forecast layout! Learn more

10-Day Weather Forecast

Advertisements
Track Severe Weather on mobile